createdAt,value
2018-09-07T00:00:52.524Z,11.33
2018-09-07T00:03:30.541Z,11.15
2018-09-07T00:06:07.503Z,12.80
2018-09-07T00:08:43.820Z,11.63
2018-09-07T00:11:23.220Z,11.38
2018-09-07T00:13:56.898Z,12.53
2018-09-07T00:16:28.910Z,12.43
2018-09-07T00:19:05.718Z,12.33
2018-09-07T00:21:40.948Z,11.22
2018-09-07T00:24:21.118Z,11.10
2018-09-07T00:26:52.983Z,12.35
2018-09-07T00:29:31.794Z,12.40
2018-09-07T00:32:09.741Z,10.88
2018-09-07T00:34:47.633Z,12.28
2018-09-07T00:37:22.425Z,11.57
2018-09-07T00:40:01.338Z,11.33
2018-09-07T00:42:43.561Z,11.90
2018-09-07T00:45:23.673Z,12.33
2018-09-07T00:47:59.606Z,12.13
2018-09-07T00:50:40.129Z,11.57
2018-09-07T00:53:19.027Z,12.28
2018-09-07T00:55:55.802Z,11.97
2018-09-07T00:58:31.712Z,12.88
2018-09-07T01:01:12.253Z,11.90
2018-09-07T01:03:49.763Z,13.32
2018-09-07T01:06:27.876Z,12.15
2018-09-07T01:09:09.293Z,12.40
2018-09-07T01:11:50.170Z,12.00
2018-09-07T01:14:31.885Z,13.03
2018-09-07T01:17:13.178Z,12.80
2018-09-07T01:19:49.345Z,13.65
2018-09-07T01:22:30.453Z,12.20
2018-09-07T01:25:06.135Z,12.20
2018-09-07T01:27:43.608Z,11.75
2018-09-07T01:30:15.659Z,12.50
2018-09-07T01:32:58.201Z,12.33
2018-09-07T01:35:31.920Z,11.78
2018-09-07T01:38:13.374Z,11.68
2018-09-07T01:40:46.958Z,13.22
2018-09-07T01:43:24.902Z,11.70
2018-09-07T01:45:59.265Z,12.33
2018-09-07T01:48:36.989Z,12.05
2018-09-07T01:51:14.132Z,12.43
2018-09-07T01:53:50.692Z,12.20
2018-09-07T01:56:24.762Z,11.90
2018-09-07T01:58:58.181Z,11.33
2018-09-07T02:01:30.706Z,12.70
2018-09-07T02:04:09.692Z,12.23
2018-09-07T02:06:42.470Z,12.10
2018-09-07T02:09:21.969Z,11.65
2018-09-07T02:11:54.684Z,11.12
2018-09-07T02:14:32.604Z,10.75
2018-09-07T02:17:06.750Z,12.03
2018-09-07T02:19:43.458Z,12.10
2018-09-07T02:22:16.689Z,11.50
2018-09-07T02:24:53.271Z,11.60
2018-09-07T02:27:28.540Z,12.88
2018-09-07T02:30:05.559Z,12.07
2018-09-07T02:32:40.176Z,13.25
2018-09-07T02:35:16.498Z,12.43
2018-09-07T02:37:50.072Z,12.65
2018-09-07T02:40:27.759Z,12.58
2018-09-07T02:42:59.613Z,13.20
2018-09-07T02:45:35.449Z,12.53
2018-09-07T02:48:09.740Z,12.18
2018-09-07T02:50:45.296Z,12.58
2018-09-07T02:53:20.606Z,13.18
2018-09-07T02:56:02.256Z,12.82
2018-09-07T02:58:34.543Z,13.78
2018-09-07T03:01:09.855Z,13.22
2018-09-07T03:03:43.429Z,13.70
2018-09-07T03:06:20.803Z,12.15
2018-09-07T03:08:56.231Z,12.25
2018-09-07T03:11:31.807Z,12.10
2018-09-07T03:14:06.508Z,12.50
2018-09-07T03:16:42.679Z,13.55
2018-09-07T03:19:17.764Z,13.38
2018-09-07T03:21:54.189Z,11.83
2018-09-07T03:24:28.896Z,12.85
2018-09-07T03:27:02.937Z,12.75
2018-09-07T03:29:40.305Z,12.73
2018-09-07T03:32:16.074Z,12.63
2018-09-07T03:34:53.790Z,12.78
2018-09-07T03:37:29.221Z,12.10
2018-09-07T03:40:04.410Z,11.93
2018-09-07T03:42:40.225Z,12.47
2018-09-07T03:45:13.011Z,12.75
2018-09-07T03:47:48.620Z,13.00
2018-09-07T03:50:21.693Z,12.40
2018-09-07T03:52:57.619Z,11.70
2018-09-07T03:55:35.216Z,12.07
2018-09-07T03:58:11.255Z,12.80
2018-09-07T04:00:43.634Z,13.45
2018-09-07T04:03:19.864Z,13.78
2018-09-07T04:05:52.346Z,12.90
2018-09-07T04:08:29.854Z,12.90
2018-09-07T04:11:02.560Z,12.60
2018-09-07T04:13:37.263Z,11.70
2018-09-07T04:16:09.306Z,11.88
2018-09-07T04:18:44.551Z,12.20
2018-09-07T04:21:15.839Z,12.37
2018-09-07T04:23:50.566Z,12.60
2018-09-07T04:26:22.190Z,12.70
2018-09-07T04:28:59.978Z,12.85
2018-09-07T04:31:33.822Z,13.22
2018-09-07T04:34:09.186Z,13.50
2018-09-07T04:36:43.406Z,13.80
2018-09-07T04:39:19.734Z,14.10
2018-09-07T04:41:53.875Z,13.13
2018-09-07T04:44:30.018Z,13.18
2018-09-07T04:47:03.379Z,14.47
2018-09-07T04:49:38.856Z,14.70
2018-09-07T04:52:10.907Z,16.10
2018-09-07T04:54:46.386Z,14.53
2018-09-07T04:57:19.136Z,14.23
2018-09-07T04:59:54.814Z,14.63
2018-09-07T05:02:28.458Z,14.13
2018-09-07T05:05:01.232Z,15.20
2018-09-07T05:07:35.394Z,15.23
2018-09-07T05:10:11.233Z,16.05
2018-09-07T05:12:43.830Z,15.23
2018-09-07T05:15:19.038Z,16.82
2018-09-07T05:17:50.585Z,16.05
2018-09-07T05:20:25.337Z,16.60
2018-09-07T05:23:02.348Z,14.90
2018-09-07T05:25:37.302Z,16.65
2018-09-07T05:28:13.273Z,16.05
2018-09-07T05:30:49.593Z,15.83
2018-09-07T05:33:23.079Z,17.90
2018-09-07T05:35:57.898Z,16.40
2018-09-07T05:38:34.263Z,15.28
2018-09-07T05:41:09.191Z,16.77
2018-09-07T05:43:44.954Z,15.63
2018-09-07T05:46:20.176Z,15.63
2018-09-07T05:48:56.635Z,17.10
2018-09-07T05:51:32.568Z,17.50
2018-09-07T05:54:09.595Z,16.95
2018-09-07T05:56:47.748Z,17.55
2018-09-07T05:59:26.542Z,17.35
2018-09-07T06:02:04.404Z,16.95
2018-09-07T06:04:38.042Z,16.27
2018-09-07T06:07:18.406Z,16.02
2018-09-07T06:09:53.095Z,16.87
2018-09-07T06:12:31.498Z,16.40
2018-09-07T06:15:20.859Z,17.42
2018-09-07T06:17:58.425Z,16.73
2018-09-07T06:20:42.160Z,17.40
2018-09-07T06:23:16.230Z,16.65
2018-09-07T06:25:51.288Z,17.15
2018-09-07T06:28:34.129Z,17.52
2018-09-07T06:43:27.872Z,17.35
2018-09-07T07:29:22.134Z,16.27
2018-09-07T07:32:08.207Z,15.95
2018-09-07T07:43:44.529Z,17.23
2018-09-07T07:46:19.517Z,16.27
2018-09-07T07:48:56.940Z,16.60
2018-09-07T07:51:33.675Z,16.55
2018-09-07T07:54:05.947Z,16.70
2018-09-07T08:20:56.171Z,34.05
2018-09-07T09:03:58.047Z,30.52
2018-09-07T09:18:49.173Z,24.30
2018-09-07T09:21:26.070Z,23.40
2018-09-07T09:24:04.636Z,22.98
2018-09-07T09:26:40.907Z,22.10
2018-09-07T09:29:17.943Z,22.93
2018-09-07T09:31:52.263Z,22.70
2018-09-07T09:34:28.550Z,22.30
2018-09-07T10:15:45.329Z,15.93
2018-09-07T10:18:24.505Z,15.35
2018-09-07T10:21:01.129Z,15.88
2018-09-07T10:23:32.860Z,16.42
2018-09-07T10:26:07.936Z,12.65
2018-09-07T10:28:40.428Z,11.50
2018-09-07T10:31:15.206Z,10.00
2018-09-07T10:34:01.722Z,9.78
2018-09-07T10:36:33.991Z,10.00
2018-09-07T10:42:09.687Z,8.53
2018-09-07T10:44:46.998Z,7.75
2018-09-07T10:47:28.623Z,7.12
2018-09-07T10:49:56.386Z,6.78
2018-09-07T10:52:23.905Z,8.20
2018-09-07T10:54:51.512Z,7.58
2018-09-07T10:57:19.020Z,6.70
2018-09-07T10:59:46.688Z,6.70
2018-09-07T11:02:14.175Z,6.58
2018-09-07T11:04:41.889Z,8.30
2018-09-07T11:07:09.515Z,6.40
2018-09-07T11:09:37.073Z,7.53
2018-09-07T11:12:04.782Z,6.78
2018-09-07T11:14:32.270Z,6.90
2018-09-07T11:16:59.870Z,6.50
2018-09-07T11:19:27.362Z,6.37
2018-09-07T11:21:55.002Z,6.55
2018-09-07T11:24:22.492Z,5.45
2018-09-07T12:09:02.400Z,5.50
2018-09-07T12:25:55.027Z,5.62
2018-09-07T12:28:51.020Z,6.15
2018-09-07T12:32:30.023Z,6.42
2018-09-07T12:35:22.890Z,5.00
2018-09-07T12:40:44.134Z,4.47
2018-09-07T12:43:24.406Z,5.00
2018-09-07T12:46:07.556Z,4.70
2018-09-07T12:48:48.712Z,4.95
2018-09-07T12:51:37.717Z,5.75
2018-09-07T12:57:00.898Z,7.72
2018-09-07T12:59:42.486Z,5.78
2018-09-07T13:02:27.781Z,8.00
2018-09-07T13:05:07.784Z,10.70
2018-09-07T13:07:43.710Z,5.80
2018-09-07T13:10:24.741Z,6.22
2018-09-07T13:13:11.298Z,5.83
2018-09-07T13:15:46.655Z,5.40
2018-09-07T13:18:21.407Z,5.80
2018-09-07T13:20:57.946Z,6.55
2018-09-07T13:23:34.179Z,6.00
2018-09-07T13:26:08.517Z,6.50
2018-09-07T13:28:42.020Z,5.20
2018-09-07T13:31:21.142Z,5.05
2018-09-07T13:36:56.618Z,5.37
2018-09-07T13:39:38.138Z,5.27
2018-09-07T13:42:09.518Z,5.03
2018-09-07T13:44:53.237Z,5.30
2018-09-07T13:47:34.311Z,4.63
2018-09-07T13:50:12.489Z,5.17
2018-09-07T13:52:53.886Z,4.55
2018-09-07T13:55:29.075Z,5.50
2018-09-07T13:58:07.008Z,5.30
2018-09-07T14:00:41.151Z,4.80
2018-09-07T14:03:15.715Z,4.23
2018-09-07T14:05:52.744Z,4.63
2018-09-07T14:08:36.071Z,4.30
2018-09-07T14:11:15.732Z,5.17
2018-09-07T14:13:50.694Z,4.10
2018-09-07T14:16:25.982Z,4.23
2018-09-07T14:19:01.150Z,4.00
2018-09-07T14:21:37.143Z,5.53
2018-09-07T14:24:08.972Z,3.60
2018-09-07T14:26:46.068Z,4.50
2018-09-07T14:29:18.075Z,3.40
2018-09-07T14:31:51.227Z,3.57
2018-09-07T14:34:23.899Z,3.93
2018-09-07T14:37:11.718Z,3.50
2018-09-07T14:39:55.159Z,5.72
2018-09-07T14:42:38.816Z,3.47
2018-09-07T14:45:21.224Z,3.17
2018-09-07T14:48:07.592Z,3.50
2018-09-07T14:50:54.068Z,3.30
2018-09-07T14:53:31.362Z,3.40
2018-09-07T14:57:18.436Z,3.03
2018-09-07T14:59:52.452Z,4.50
2018-09-07T15:02:25.047Z,4.33
2018-09-07T15:04:58.644Z,3.67
2018-09-07T15:07:29.713Z,2.90
2018-09-07T15:10:05.007Z,3.08
2018-09-07T15:12:40.334Z,3.55
2018-09-07T15:15:12.310Z,3.12
2018-09-07T15:17:49.067Z,3.33
2018-09-07T15:20:23.384Z,5.47
2018-09-07T15:22:58.484Z,3.07
2018-09-07T15:25:30.331Z,3.12
2018-09-07T15:28:04.190Z,2.62
2018-09-07T15:30:36.791Z,2.80
2018-09-07T15:33:11.108Z,2.87
2018-09-07T15:35:45.582Z,2.58
2018-09-07T15:38:19.062Z,2.60
2018-09-07T15:40:54.859Z,2.83
2018-09-07T15:43:29.186Z,5.75
2018-09-07T15:46:03.613Z,2.70
2018-09-07T15:48:40.852Z,2.50
2018-09-07T15:51:15.439Z,2.65
2018-09-07T15:53:48.485Z,2.60
2018-09-07T15:56:21.901Z,2.80
2018-09-07T15:58:58.711Z,2.50
2018-09-07T16:01:37.208Z,2.52
2018-09-07T16:04:11.231Z,2.20
2018-09-07T16:06:43.929Z,2.52
2018-09-07T16:09:18.895Z,2.60
2018-09-07T16:11:54.871Z,2.67
2018-09-07T16:14:27.247Z,4.22
2018-09-07T16:17:00.663Z,4.12
2018-09-07T16:19:35.343Z,2.95
2018-09-07T16:22:08.529Z,4.75
2018-09-07T16:24:45.003Z,3.40
2018-09-07T16:27:19.399Z,3.75
2018-09-07T16:29:58.061Z,3.50
2018-09-07T16:32:33.983Z,3.20
2018-09-07T16:35:05.886Z,4.28
2018-09-07T16:37:47.974Z,2.45
2018-09-07T16:40:24.469Z,2.65
2018-09-07T16:42:57.403Z,3.98
2018-09-07T16:45:27.476Z,3.45
2018-09-07T16:47:58.309Z,4.42
2018-09-07T16:50:35.552Z,3.10
2018-09-07T16:53:12.877Z,4.55
2018-09-07T16:55:44.261Z,3.72
2018-09-07T16:58:19.259Z,4.85
2018-09-07T17:00:49.855Z,3.47
2018-09-07T17:03:22.172Z,3.75
2018-09-07T17:08:38.432Z,5.40
2018-09-07T17:11:10.295Z,6.10
2018-09-07T17:13:45.574Z,4.80
2018-09-07T17:16:21.131Z,3.25
2018-09-07T17:18:56.112Z,3.85
2018-09-07T17:21:36.994Z,3.58
2018-09-07T17:25:50.074Z,4.30
2018-09-07T17:33:48.875Z,4.42
2018-09-07T17:36:18.834Z,3.77
2018-09-07T17:41:31.483Z,3.33
2018-09-07T17:44:03.358Z,3.80
2018-09-07T17:46:41.208Z,3.25
2018-09-07T17:49:17.325Z,3.95
2018-09-07T17:51:52.847Z,3.52
2018-09-07T17:54:24.943Z,3.50
2018-09-07T17:56:57.436Z,3.10
2018-09-07T17:59:29.309Z,3.00
2018-09-07T18:01:59.730Z,3.92
2018-09-07T18:04:37.444Z,3.77
2018-09-07T18:07:11.568Z,3.30
2018-09-07T18:09:45.154Z,3.60
2018-09-07T18:12:22.712Z,4.42
2018-09-07T18:14:54.326Z,4.50
2018-09-07T18:17:29.259Z,3.30
2018-09-07T18:20:00.978Z,3.45
2018-09-07T18:22:37.424Z,3.50
2018-09-07T18:25:11.804Z,3.50
2018-09-07T18:27:50.301Z,3.75
2018-09-07T18:30:25.045Z,4.10
2018-09-07T18:32:57.560Z,3.70
2018-09-07T18:35:30.091Z,3.60
2018-09-07T18:38:02.793Z,3.70
2018-09-07T18:40:37.462Z,4.22
2018-09-07T18:43:13.656Z,3.60
2018-09-07T18:45:49.069Z,4.22
2018-09-07T18:48:28.444Z,3.83
2018-09-07T18:51:02.615Z,4.12
2018-09-07T18:53:37.203Z,4.20
2018-09-07T18:56:12.684Z,4.20
2018-09-07T18:58:46.877Z,3.90
2018-09-07T19:01:21.703Z,4.05
2018-09-07T19:03:56.430Z,4.05
2018-09-07T19:06:29.707Z,3.98
2018-09-07T19:09:05.862Z,5.33
2018-09-07T19:11:43.687Z,4.70
2018-09-07T19:14:16.967Z,5.03
2018-09-07T19:16:53.187Z,4.40
2018-09-07T19:19:24.738Z,4.35
2018-09-07T19:22:02.765Z,4.45
2018-09-07T19:24:35.891Z,4.37
2018-09-07T19:27:10.049Z,4.30
2018-09-07T19:29:41.407Z,4.20
2018-09-07T19:32:16.432Z,4.50
2018-09-07T19:34:49.771Z,4.50
2018-09-07T19:37:25.350Z,4.50
2018-09-07T19:39:58.669Z,4.80
2018-09-07T19:42:31.502Z,5.05
2018-09-07T19:45:08.973Z,4.70
2018-09-07T19:47:46.028Z,4.80
2018-09-07T19:50:17.647Z,4.67
2018-09-07T19:52:55.022Z,4.33
2018-09-07T19:55:29.965Z,4.90
2018-09-07T19:58:04.869Z,4.33
2018-09-07T20:00:37.569Z,5.20
2018-09-07T20:03:14.113Z,4.90
2018-09-07T20:05:49.596Z,4.45
2018-09-07T20:08:24.726Z,4.92
2018-09-07T20:13:45.066Z,5.92
2018-09-07T20:16:17.804Z,4.90
2018-09-07T20:19:03.992Z,5.05
2018-09-07T20:24:38.262Z,5.08
2018-09-07T20:27:17.528Z,5.00
2018-09-07T20:32:41.197Z,4.92
2018-09-07T20:35:22.304Z,5.00
2018-09-07T20:37:58.824Z,4.28
2018-09-07T20:40:34.799Z,4.60
2018-09-07T20:43:09.773Z,4.60
2018-09-07T20:45:48.139Z,5.12
2018-09-07T20:48:26.720Z,4.17
2018-09-07T20:51:01.651Z,5.15
2018-09-07T20:53:34.566Z,4.67
2018-09-07T21:02:07.952Z,4.35
2018-09-07T21:04:41.285Z,4.87
2018-09-07T21:07:16.615Z,4.97
2018-09-07T21:09:51.412Z,4.60
2018-09-07T21:12:24.589Z,4.45
2018-09-07T21:15:00.298Z,4.60
2018-09-07T21:17:32.590Z,5.47
2018-09-07T21:20:08.919Z,5.47
2018-09-07T21:22:45.549Z,4.42
2018-09-07T21:25:25.427Z,4.45
2018-09-07T21:28:00.866Z,4.70
2018-09-07T21:30:36.530Z,4.75
2018-09-07T21:33:13.068Z,4.10
2018-09-07T21:35:52.691Z,4.40
2018-09-07T21:38:25.884Z,3.92
2018-09-07T21:41:00.969Z,4.80
2018-09-07T21:43:32.586Z,4.37
2018-09-07T21:46:08.851Z,5.10
2018-09-07T21:48:42.221Z,5.08
2018-09-07T21:51:24.147Z,6.85
2018-09-07T21:54:04.604Z,6.28
2018-09-07T21:56:40.963Z,6.42
2018-09-07T21:59:15.506Z,6.53
2018-09-07T22:01:54.497Z,6.00
2018-09-07T22:04:25.822Z,5.95
2018-09-07T22:07:04.468Z,6.10
2018-09-07T22:09:40.886Z,6.10
2018-09-07T22:12:13.346Z,5.47
2018-09-07T22:14:55.215Z,5.80
2018-09-07T22:17:29.909Z,6.60
2018-09-07T22:20:04.929Z,6.03
2018-09-07T22:22:41.700Z,5.78
2018-09-07T22:25:16.154Z,6.15
2018-09-07T22:27:52.853Z,5.15
2018-09-07T22:30:27.408Z,5.40
2018-09-07T22:33:01.381Z,4.60
2018-09-07T22:35:33.365Z,3.83
2018-09-07T22:38:07.970Z,4.12
2018-09-07T22:40:43.807Z,4.03
2018-09-07T22:43:18.082Z,3.75
2018-09-07T22:45:57.056Z,3.42
2018-09-07T22:48:36.100Z,4.20
2018-09-07T22:51:15.188Z,4.70
2018-09-07T22:53:50.252Z,3.98
2018-09-07T22:56:22.021Z,3.85
2018-09-07T22:58:59.565Z,4.45
2018-09-07T23:01:36.811Z,4.67
2018-09-07T23:04:15.827Z,4.40
2018-09-07T23:06:54.174Z,4.03
2018-09-07T23:09:34.944Z,4.53
2018-09-07T23:12:09.510Z,4.53
2018-09-07T23:14:45.507Z,4.47
2018-09-07T23:17:22.076Z,4.85
2018-09-07T23:19:57.354Z,4.78
2018-09-07T23:22:36.109Z,4.58
2018-09-07T23:25:11.775Z,4.42
2018-09-07T23:27:43.465Z,4.30
2018-09-07T23:30:21.283Z,4.10
2018-09-07T23:32:54.481Z,4.17
2018-09-07T23:35:34.521Z,4.58
2018-09-07T23:38:13.620Z,4.10
2018-09-07T23:40:49.441Z,4.20
2018-09-07T23:43:21.729Z,4.30
2018-09-07T23:45:55.548Z,4.87
2018-09-07T23:48:30.640Z,4.30
2018-09-07T23:51:02.404Z,5.00
2018-09-07T23:53:39.194Z,4.50
2018-09-07T23:56:10.116Z,4.25
2018-09-07T23:58:48.024Z,4.47
